Time;durP1;ratioP1;P1;durP2;ratioP2;P2;SDS_P1;SDS_P2;PMS_P1;PMS_P2;Temp;Humidity;BMP_temperature;BMP_pressure;BME280_temperature;BME280_humidity;BME280_pressure;Samples;Min_cycle;Max_cycle;Signal;HPM_P1;HPM_P2
2022/09/15 00:02:13;;;;;;;2.55;0.45;;;18.10;99.90;;;;;;4996230;28;20023;-83
2022/09/15 00:04:39;;;;;;;1.25;0.50;;;17.80;99.90;;;;;;4995579;28;20099;-84
2022/09/15 00:07:05;;;;;;;2.08;0.50;;;17.80;99.90;;;;;;4993775;28;20438;-84
2022/09/15 00:09:30;;;;;;;0.88;0.50;;;17.70;99.90;;;;;;4991867;28;20041;-84
2022/09/15 00:11:56;;;;;;;2.33;0.60;;;17.70;99.90;;;;;;4988121;28;20023;-83
2022/09/15 00:14:22;;;;;;;4.05;0.50;;;17.70;99.90;;;;;;4988493;28;20030;-84
2022/09/15 00:16:48;;;;;;;0.70;0.38;;;17.80;99.90;;;;;;4987565;28;20023;-84
2022/09/15 00:19:13;;;;;;;1.65;0.60;;;17.70;99.90;;;;;;4987449;28;20027;-84
2022/09/15 00:21:40;;;;;;;1.55;0.47;;;17.70;99.90;;;;;;4987190;28;20030;-84
2022/09/15 00:24:07;;;;;;;1.85;0.65;;;17.70;99.90;;;;;;4983580;28;20030;-84
2022/09/15 00:26:33;;;;;;;0.82;0.40;;;17.70;99.90;;;;;;4988750;28;20045;-84
2022/09/15 00:29:00;;;;;;;1.35;0.65;;;17.60;99.90;;;;;;4992210;28;20038;-84
2022/09/15 00:31:27;;;;;;;0.25;0.20;;;17.70;99.90;;;;;;4991103;28;20010;-84
2022/09/15 00:33:55;;;;;;;1.08;0.30;;;17.60;99.90;;;;;;4991014;28;20499;-84
2022/09/15 00:36:23;;;;;;;2.45;0.50;;;17.60;99.90;;;;;;4989183;28;20117;-84
2022/09/15 00:38:49;;;;;;;0.88;0.30;;;17.60;99.90;;;;;;4992972;28;20023;-85
2022/09/15 00:41:17;;;;;;;1.13;0.30;;;17.60;99.90;;;;;;4992426;28;20022;-83
2022/09/15 00:43:55;;;;;;;0.90;0.40;;;17.60;99.90;;;;;;4990064;28;20029;-84
2022/09/15 00:46:31;;;;;;;0.73;0.20;;;17.60;99.90;;;;;;4989399;28;20447;-84
2022/09/15 00:49:04;;;;;;;0.85;0.30;;;17.60;99.90;;;;;;4991397;28;20415;-84
2022/09/15 00:51:51;;;;;;;1.58;0.50;;;17.60;99.90;;;;;;4992316;28;20015;-84
2022/09/15 00:55:04;;;;;;;1.85;0.38;;;17.60;99.90;;;;;;4987761;28;20478;-84
2022/09/15 00:57:45;;;;;;;1.33;0.50;;;17.60;99.90;;;;;;4987028;28;20439;-84
2022/09/15 01:00:14;;;;;;;0.77;0.30;;;17.60;99.90;;;;;;4996781;28;20018;-84
2022/09/15 01:02:42;;;;;;;1.85;0.30;;;17.50;99.90;;;;;;4999665;28;20066;-83
2022/09/15 01:05:11;;;;;;;1.73;0.30;;;17.50;99.90;;;;;;4997839;28;20053;-84
2022/09/15 01:07:51;;;;;;;4.22;0.55;;;17.60;99.90;;;;;;4984881;28;20034;-84
2022/09/15 01:10:24;;;;;;;0.50;0.30;;;17.50;99.90;;;;;;4993714;28;20026;-84
2022/09/15 01:12:51;;;;;;;0.88;0.30;;;17.40;99.90;;;;;;5007260;28;20491;-84
2022/09/15 01:15:16;;;;;;;1.75;0.68;;;17.50;99.90;;;;;;4990738;28;20049;-84
2022/09/15 01:18:02;;;;;;;1.05;0.40;;;17.50;99.90;;;;;;4989217;28;20058;-84
2022/09/15 01:20:53;;;;;;;0.65;0.30;;;17.40;99.90;;;;;;4987369;28;20101;-84
2022/09/15 01:23:47;;;;;;;1.67;0.55;;;17.40;99.90;;;;;;4991564;28;20429;-84
2022/09/15 01:26:28;;;;;;;0.70;0.30;;;17.40;99.90;;;;;;5001413;28;20475;-84
2022/09/15 01:29:31;;;;;;;0.82;0.40;;;17.40;99.90;;;;;;4986386;28;20026;-84
2022/09/15 01:35:16;;;;;;;0.45;0.30;;;17.30;99.90;;;;;;4993206;28;20036;-84
2022/09/15 01:37:49;;;;;;;2.65;0.40;;;17.30;99.90;;;;;;4990348;28;20026;-84
2022/09/15 01:40:17;;;;;;;0.85;0.40;;;17.10;99.90;;;;;;4987225;28;20033;-84
2022/09/15 01:42:44;;;;;;;0.98;0.20;;;17.20;99.90;;;;;;4991796;28;20050;-84
2022/09/15 01:45:31;;;;;;;1.25;0.60;;;17.20;99.90;;;;;;4991941;28;20391;-84
2022/09/15 01:47:58;;;;;;;1.52;0.45;;;17.20;99.90;;;;;;4992939;28;20022;-84
2022/09/15 01:50:30;;;;;;;0.90;0.40;;;17.20;99.90;;;;;;4991372;28;20026;-84
2022/09/15 01:52:59;;;;;;;;;;;17.20;99.90;;;;;;4989594;28;20022;-84
2022/09/15 01:55:52;;;;;;;1.40;0.40;;;17.10;99.90;;;;;;4991132;28;19976;-84
2022/09/15 01:58:19;;;;;;;1.25;0.40;;;17.10;99.90;;;;;;4985030;28;20080;-84
2022/09/15 02:00:52;;;;;;;0.68;0.30;;;17.10;99.90;;;;;;4992255;28;20038;-85
2022/09/15 02:03:34;;;;;;;0.88;0.30;;;17.20;99.90;;;;;;4991920;28;20018;-84
2022/09/15 02:06:24;;;;;;;0.82;0.35;;;17.10;99.90;;;;;;4991828;28;20049;-84
2022/09/15 02:09:01;;;;;;;0.47;0.20;;;17.10;99.90;;;;;;4990481;28;20587;-84
2022/09/15 02:11:29;;;;;;;1.13;0.43;;;17.20;99.90;;;;;;4989704;28;20053;-84
2022/09/15 02:14:17;;;;;;;1.63;0.38;;;17.10;99.90;;;;;;4990663;28;20129;-84
2022/09/15 02:16:51;;;;;;;1.08;0.77;;;17.10;99.90;;;;;;4998322;28;20502;-84
2022/09/15 02:19:39;;;;;;;0.68;0.20;;;17.10;99.90;;;;;;4990874;28;20026;-84
2022/09/15 02:22:16;;;;;;;0.50;0.28;;;17.10;99.90;;;;;;4992316;28;20032;-84
2022/09/15 02:24:51;;;;;;;0.82;0.30;;;17.10;99.90;;;;;;4990295;28;20080;-84
2022/09/15 02:27:23;;;;;;;0.73;0.30;;;17.10;99.90;;;;;;4981064;28;20030;-84
2022/09/15 02:29:52;;;;;;;1.05;0.20;;;17.10;99.90;;;;;;4989490;28;20030;-84
2022/09/15 02:32:22;;;;;;;0.95;0.40;;;17.10;99.90;;;;;;4992881;28;20026;-84
2022/09/15 02:34:50;;;;;;;1.27;0.45;;;17.10;99.90;;;;;;4990604;28;20110;-83
2022/09/15 02:37:19;;;;;;;0.82;0.25;;;17.10;99.90;;;;;;4987316;28;20022;-84
2022/09/15 02:39:50;;;;;;;0.60;0.20;;;17.10;99.90;;;;;;4991867;28;20022;-84
2022/09/15 02:42:27;;;;;;;1.45;0.40;;;17.10;99.90;;;;;;4989836;28;20028;-83
2022/09/15 02:44:53;;;;;;;0.65;0.25;;;17.10;99.90;;;;;;4984277;28;20031;-83
2022/09/15 02:47:19;;;;;;;0.80;0.30;;;17.40;99.90;;;;;;4989850;28;20109;-84
2022/09/15 02:49:44;;;;;;;0.50;0.20;;;17.10;99.90;;;;;;4990756;28;20022;-83
2022/09/15 02:52:10;;;;;;;1.05;0.40;;;17.10;99.90;;;;;;4991533;28;20441;-84
2022/09/15 02:54:36;;;;;;;0.40;0.20;;;17.10;99.90;;;;;;4993550;28;20048;-84
2022/09/15 02:57:02;;;;;;;0.85;0.30;;;17.10;99.90;;;;;;4992073;28;20029;-84
2022/09/15 03:00:11;;;;;;;0.65;0.10;;;17.10;99.90;;;;;;4993857;28;20023;-83
2022/09/15 03:02:13;;;;;;;0.40;0.20;;;17.10;99.90;;;;;;4992235;28;20120;-83
2022/09/15 03:04:39;;;;;;;0.57;0.30;;;17.10;99.90;;;;;;5001911;28;20034;-84
2022/09/15 03:07:04;;;;;;;1.05;0.45;;;17.10;99.90;;;;;;4987333;28;20062;-84
2022/09/15 03:09:30;;;;;;;0.65;0.30;;;17.10;99.90;;;;;;4994536;28;20026;-84
2022/09/15 03:11:55;;;;;;;0.45;0.30;;;17.10;99.90;;;;;;4994258;28;20030;-83
2022/09/15 03:14:21;;;;;;;0.32;0.17;;;17.10;99.90;;;;;;4991985;28;20109;-84
2022/09/15 03:16:46;;;;;;;1.15;0.40;;;17.10;99.90;;;;;;4990181;28;20026;-84
2022/09/15 03:19:12;;;;;;;1.25;0.47;;;17.10;99.90;;;;;;4986428;28;20027;-84
2022/09/15 03:21:38;;;;;;;0.70;0.20;;;17.10;99.90;;;;;;5004019;28;20085;-84
2022/09/15 03:24:03;;;;;;;3.70;0.32;;;17.50;99.90;;;;;;4991947;28;20034;-84
2022/09/15 03:26:29;;;;;;;1.77;0.50;;;17.10;99.90;;;;;;4983812;28;20443;-85
2022/09/15 03:28:55;;;;;;;1.02;0.40;;;17.00;99.90;;;;;;4983926;28;20030;-84
2022/09/15 03:31:21;;;;;;;1.17;0.38;;;17.00;99.90;;;;;;4983789;28;20044;-84
2022/09/15 03:33:47;;;;;;;0.63;0.20;;;17.00;99.90;;;;;;4984468;28;20022;-82
2022/09/15 03:36:13;;;;;;;0.80;0.47;;;17.00;99.90;;;;;;4991925;28;20019;-84
2022/09/15 03:38:39;;;;;;;0.82;0.10;;;16.90;99.90;;;;;;4982133;28;20035;-84
2022/09/15 03:41:08;;;;;;;0.70;0.30;;;17.10;99.90;;;;;;4983132;28;20502;-84
2022/09/15 03:43:35;;;;;;;0.47;0.20;;;16.90;99.90;;;;;;4988799;28;20027;-83
2022/09/15 03:46:01;;;;;;;0.60;0.28;;;17.00;99.90;;;;;;4983685;28;20034;-84
2022/09/15 03:48:28;;;;;;;1.65;0.30;;;17.00;99.90;;;;;;4978840;28;20082;-84
2022/09/15 03:50:54;;;;;;;0.57;0.30;;;16.90;99.90;;;;;;4986124;28;20383;-84
2022/09/15 03:53:20;;;;;;;1.35;0.50;;;16.90;99.90;;;;;;5004980;23;20026;-85
2022/09/15 03:55:47;;;;;;;0.68;0.20;;;16.80;99.90;;;;;;5006366;28;20032;-85
2022/09/15 03:58:13;;;;;;;0.70;0.25;;;16.80;99.90;;;;;;5009288;28;20106;-86
2022/09/15 04:00:42;;;;;;;0.55;0.20;;;16.80;99.90;;;;;;5010989;28;20042;-85
2022/09/15 04:03:08;;;;;;;0.88;0.20;;;16.80;99.90;;;;;;5024188;28;20021;-85
2022/09/15 04:05:34;;;;;;;0.57;0.28;;;16.80;99.90;;;;;;5010249;28;20026;-85
2022/09/15 04:08:00;;;;;;;1.30;0.43;;;16.80;99.90;;;;;;5006239;28;20045;-85
2022/09/15 04:10:26;;;;;;;1.50;0.30;;;16.80;99.90;;;;;;5007896;28;20379;-85
2022/09/15 04:12:52;;;;;;;0.63;0.20;;;16.90;99.90;;;;;;4995573;28;20395;-86
2022/09/15 04:15:19;;;;;;;1.40;0.22;;;17.00;99.90;;;;;;5007198;28;20018;-85
2022/09/15 04:17:45;;;;;;;1.48;0.25;;;16.70;99.90;;;;;;5006893;28;20091;-85
2022/09/15 04:20:11;;;;;;;0.40;0.20;;;16.80;99.90;;;;;;5009663;28;20022;-86
2022/09/15 04:22:37;;;;;;;0.50;0.20;;;16.80;99.90;;;;;;4998048;28;20042;-85
2022/09/15 04:25:03;;;;;;;0.55;0.20;;;16.80;99.90;;;;;;5003950;28;20064;-84
2022/09/15 04:27:33;;;;;;;1.35;0.30;;;16.80;99.90;;;;;;5009875;28;20026;-85
2022/09/15 04:29:59;;;;;;;0.57;0.25;;;16.70;99.90;;;;;;5001413;28;20022;-85
2022/09/15 04:32:24;;;;;;;0.77;0.22;;;16.70;99.90;;;;;;5005100;28;20018;-85
2022/09/15 04:34:50;;;;;;;1.27;0.30;;;16.80;99.90;;;;;;4999753;28;20033;-85
2022/09/15 04:37:15;;;;;;;3.63;0.30;;;16.80;99.90;;;;;;5009821;28;20028;-85
2022/09/15 04:39:41;;;;;;;0.50;0.20;;;17.30;99.90;;;;;;5012874;28;20042;-85
2022/09/15 04:42:07;;;;;;;0.75;0.20;;;16.70;99.90;;;;;;5011256;28;20010;-86
2022/09/15 04:44:33;;;;;;;0.77;0.35;;;16.80;99.90;;;;;;5006957;28;20033;-85
2022/09/15 04:46:58;;;;;;;2.03;0.20;;;16.80;99.90;;;;;;5010421;28;20038;-85
2022/09/15 04:49:24;;;;;;;0.47;0.30;;;16.80;99.90;;;;;;5011308;28;20022;-85
2022/09/15 04:51:52;;;;;;;1.80;0.35;;;16.70;99.90;;;;;;5006146;28;20380;-85
2022/09/15 04:54:19;;;;;;;4.80;0.50;;;16.70;99.90;;;;;;5008524;28;20034;-85
2022/09/15 04:56:44;;;;;;;1.63;0.32;;;16.70;99.90;;;;;;5011323;28;20026;-85
2022/09/15 04:59:15;;;;;;;1.20;0.20;;;16.70;99.90;;;;;;5013405;28;20509;-85
2022/09/15 05:01:41;;;;;;;2.05;0.40;;;16.70;99.90;;;;;;5008056;28;20034;-85
2022/09/15 05:04:07;;;;;;;0.40;0.20;;;16.70;99.90;;;;;;5009172;28;20030;-85
2022/09/15 05:06:34;;;;;;;1.45;0.30;;;16.60;99.90;;;;;;5015979;28;20029;-85
2022/09/15 05:09:00;;;;;;;0.85;0.30;;;16.70;99.90;;;;;;5012120;28;20501;-85
2022/09/15 05:11:27;;;;;;;0.65;0.25;;;16.70;99.90;;;;;;5006272;28;20033;-85
2022/09/15 05:13:53;;;;;;;0.90;0.22;;;16.80;99.90;;;;;;5008357;28;20014;-85
2022/09/15 05:16:21;;;;;;;1.30;0.30;;;16.70;99.90;;;;;;5009572;28;20490;-85
2022/09/15 05:18:49;;;;;;;0.93;0.20;;;16.70;99.90;;;;;;5012005;28;20053;-83
2022/09/15 05:21:17;;;;;;;0.68;0.20;;;16.70;99.90;;;;;;5012044;28;20399;-85
2022/09/15 05:23:43;;;;;;;0.52;0.30;;;16.70;99.90;;;;;;5003523;28;20471;-85
2022/09/15 05:26:12;;;;;;;0.52;0.22;;;16.80;99.90;;;;;;5013215;28;20021;-85
2022/09/15 05:28:38;;;;;;;1.17;0.30;;;16.70;99.90;;;;;;5005957;28;20037;-86
2022/09/15 05:31:19;;;;;;;0.50;0.20;;;16.60;99.90;;;;;;5009859;28;20088;-86
2022/09/15 05:33:45;;;;;;;0.32;0.20;;;16.70;99.90;;;;;;5009764;28;20025;-85
2022/09/15 05:36:13;;;;;;;1.77;0.40;;;16.80;99.90;;;;;;5012380;28;20018;-85
2022/09/15 05:38:40;;;;;;;0.57;0.30;;;16.80;99.90;;;;;;5011026;28;20025;-86
2022/09/15 05:41:11;;;;;;;1.35;0.30;;;16.80;99.90;;;;;;5010703;28;20156;-85
2022/09/15 05:43:38;;;;;;;1.15;0.30;;;16.80;99.90;;;;;;5011409;28;20030;-86
2022/09/15 05:46:05;;;;;;;0.70;0.30;;;16.80;99.90;;;;;;5013068;28;20029;-85
2022/09/15 05:48:31;;;;;;;1.02;0.20;;;16.80;99.90;;;;;;5009698;28;20021;-86
2022/09/15 05:50:57;;;;;;;1.27;0.32;;;16.80;99.90;;;;;;5009534;28;20022;-86
2022/09/15 05:53:23;;;;;;;0.68;0.28;;;16.80;99.90;;;;;;5019420;28;20037;-85
2022/09/15 05:55:54;;;;;;;0.52;0.20;;;16.80;99.90;;;;;;5011133;28;20022;-85
2022/09/15 05:58:20;;;;;;;0.47;0.17;;;16.80;99.90;;;;;;5044199;28;20075;-85
2022/09/15 06:00:45;;;;;;;0.28;0.13;;;16.80;99.90;;;;;;5010182;28;20446;-85
2022/09/15 06:03:15;;;;;;;2.05;0.20;;;16.80;99.90;;;;;;5010474;28;20025;-85
2022/09/15 06:05:41;;;;;;;0.60;0.30;;;16.80;99.90;;;;;;5008804;28;20359;-85
2022/09/15 06:08:08;;;;;;;1.13;0.20;;;16.90;99.90;;;;;;5014211;28;20121;-85
2022/09/15 06:10:35;;;;;;;0.93;0.20;;;16.90;99.90;;;;;;5000135;28;20042;-84
2022/09/15 06:13:04;;;;;;;0.50;0.20;;;16.90;99.90;;;;;;5010482;28;20026;-85
2022/09/15 06:15:30;;;;;;;0.10;0.10;;;17.00;99.90;;;;;;5008416;28;20018;-85
2022/09/15 06:17:56;;;;;;;1.45;0.10;;;16.90;99.90;;;;;;5013008;28;20390;-84
2022/09/15 06:20:24;;;;;;;0.52;0.20;;;17.00;99.90;;;;;;4998164;28;20033;-81
2022/09/15 06:22:51;;;;;;;0.35;0.10;;;17.00;99.90;;;;;;5027093;28;20119;-84
2022/09/15 06:25:17;;;;;;;3.22;0.20;;;17.00;99.90;;;;;;5012777;28;20030;-84
2022/09/15 06:27:43;;;;;;;0.65;0.20;;;17.00;99.90;;;;;;5009534;28;20042;-84
2022/09/15 06:30:10;;;;;;;0.77;0.10;;;17.00;99.90;;;;;;5011301;28;20040;-85
2022/09/15 06:32:38;;;;;;;0.47;0.13;;;17.00;99.90;;;;;;5009855;28;20033;-85
2022/09/15 06:35:07;;;;;;;0.30;0.10;;;17.00;99.90;;;;;;5008124;28;20093;-85
2022/09/15 06:37:33;;;;;;;0.82;0.25;;;17.00;99.90;;;;;;5005417;28;20034;-85
2022/09/15 06:39:59;;;;;;;0.47;0.20;;;17.00;99.90;;;;;;5009374;28;20052;-84
2022/09/15 06:42:26;;;;;;;0.93;0.40;;;17.00;99.90;;;;;;5009744;28;20040;-84
2022/09/15 06:44:53;;;;;;;1.13;0.20;;;17.10;99.90;;;;;;5010793;28;20068;-84
2022/09/15 06:47:19;;;;;;;1.38;0.20;;;17.10;99.90;;;;;;5010161;28;20030;-83
2022/09/15 06:49:52;;;;;;;1.05;0.10;;;17.10;99.90;;;;;;5012798;28;20036;-83
2022/09/15 06:52:17;;;;;;;0.47;0.30;;;17.10;99.90;;;;;;5008400;28;20068;-83
2022/09/15 06:54:43;;;;;;;0.60;0.20;;;17.20;99.90;;;;;;5004588;28;20502;-83
2022/09/15 06:57:09;;;;;;;0.10;0.10;;;17.10;99.90;;;;;;5007836;28;20061;-82
2022/09/15 06:59:34;;;;;;;0.40;0.10;;;17.20;99.90;;;;;;5009111;28;20034;-83
2022/09/15 07:02:00;;;;;;;0.57;0.20;;;17.20;99.90;;;;;;5011654;28;20801;-83
2022/09/15 07:04:26;;;;;;;0.65;0.10;;;17.10;99.90;;;;;;5004986;28;20489;-82
2022/09/15 07:06:51;;;;;;;3.00;0.25;;;17.20;99.90;;;;;;5009760;28;20029;-82
2022/09/15 07:09:18;;;;;;;1.05;0.30;;;17.10;99.90;;;;;;5012097;28;20407;-82
2022/09/15 07:11:46;;;;;;;1.10;0.30;;;17.10;99.90;;;;;;5011551;28;20025;-82
2022/09/15 07:14:12;;;;;;;2.03;0.25;;;17.10;99.90;;;;;;5015414;28;20064;-81
2022/09/15 07:16:37;;;;;;;0.73;0.10;;;17.00;99.90;;;;;;5014623;28;20061;-83
2022/09/15 07:19:04;;;;;;;0.55;0.17;;;17.00;99.90;;;;;;5012776;28;20570;-82
2022/09/15 07:21:30;;;;;;;0.50;0.20;;;17.40;99.90;;;;;;5004357;28;20026;-83
2022/09/15 07:23:57;;;;;;;2.33;0.20;;;16.90;99.90;;;;;;5005314;28;20052;-82
2022/09/15 07:26:26;;;;;;;0.30;0.10;;;16.90;99.90;;;;;;5012399;28;20498;-82
2022/09/15 07:28:56;;;;;;;1.20;0.20;;;16.90;99.90;;;;;;5010346;28;20047;-83
2022/09/15 07:31:24;;;;;;;0.60;0.20;;;16.90;99.90;;;;;;5009878;28;20542;-82
2022/09/15 07:33:50;;;;;;;0.70;0.20;;;17.00;99.90;;;;;;5013646;28;20569;-83
2022/09/15 07:36:16;;;;;;;0.80;0.10;;;17.00;99.90;;;;;;5008022;28;20026;-83
2022/09/15 07:38:44;;;;;;;0.65;0.20;;;17.00;99.90;;;;;;5008765;28;20038;-83
2022/09/15 07:41:22;;;;;;;1.40;0.13;;;17.00;99.90;;;;;;5010465;28;20026;-83
2022/09/15 07:43:52;;;;;;;0.10;0.10;;;17.00;99.90;;;;;;5011370;28;20022;-83
2022/09/15 07:46:19;;;;;;;0.60;0.20;;;17.00;99.90;;;;;;5003851;28;20391;-83
2022/09/15 07:48:50;;;;;;;0.75;0.30;;;17.00;99.90;;;;;;5014336;28;20112;-82
2022/09/15 07:51:17;;;;;;;0.95;0.35;;;16.90;99.90;;;;;;4997674;28;20022;-84
2022/09/15 07:53:44;;;;;;;1.00;0.20;;;16.90;99.90;;;;;;5010982;28;20033;-85
2022/09/15 07:56:11;;;;;;;0.63;0.20;;;16.80;99.90;;;;;;5014182;28;20037;-83
2022/09/15 07:58:36;;;;;;;0.52;0.13;;;16.80;99.90;;;;;;5013617;28;20022;-82
2022/09/15 08:01:09;;;;;;;0.68;0.20;;;16.80;99.90;;;;;;5011719;28;20026;-83
2022/09/15 08:03:39;;;;;;;0.45;0.20;;;16.70;99.90;;;;;;5007319;28;20104;-83
2022/09/15 08:06:05;;;;;;;0.20;0.10;;;16.80;99.90;;;;;;5008915;28;20026;-83
2022/09/15 08:08:31;;;;;;;0.60;0.15;;;16.70;99.90;;;;;;5008243;28;20025;-82
2022/09/15 08:10:57;;;;;;;1.17;0.32;;;16.70;99.90;;;;;;5004671;28;20434;-83
2022/09/15 08:13:23;;;;;;;0.70;0.22;;;16.80;99.90;;;;;;5011877;28;20050;-82
2022/09/15 08:15:49;;;;;;;0.43;0.20;;;16.70;99.90;;;;;;5012225;28;20018;-83
2022/09/15 08:18:15;;;;;;;0.43;0.25;;;16.80;99.90;;;;;;5014165;28;20109;-82
2022/09/15 08:20:42;;;;;;;2.72;0.40;;;16.70;99.90;;;;;;5012328;28;20771;-83
2022/09/15 08:23:09;;;;;;;1.52;0.20;;;16.70;99.90;;;;;;5011039;28;20018;-83
2022/09/15 08:25:36;;;;;;;0.68;0.25;;;16.70;99.90;;;;;;5013191;28;20551;-83
2022/09/15 08:28:03;;;;;;;0.38;0.17;;;16.70;99.90;;;;;;5012520;28;20076;-84
2022/09/15 08:30:28;;;;;;;1.65;0.63;;;16.80;99.90;;;;;;5012620;28;20026;-83
2022/09/15 08:32:54;;;;;;;1.55;0.30;;;16.80;99.90;;;;;;5016529;28;20085;-83
2022/09/15 08:35:19;;;;;;;0.80;0.40;;;16.70;99.90;;;;;;5012281;28;20453;-83
2022/09/15 08:37:46;;;;;;;0.30;0.13;;;16.80;99.90;;;;;;5014600;28;20129;-83
2022/09/15 08:40:25;;;;;;;0.63;0.30;;;16.80;99.90;;;;;;5019082;28;20026;-83
2022/09/15 08:42:54;;;;;;;1.00;0.40;;;16.90;99.90;;;;;;5016617;28;20052;-82
2022/09/15 08:45:28;;;;;;;0.65;0.52;;;17.00;99.90;;;;;;5017275;28;20089;-82
2022/09/15 08:47:58;;;;;;;0.50;0.20;;;17.00;99.90;;;;;;5015404;28;20026;-82
2022/09/15 08:50:32;;;;;;;1.13;0.50;;;17.00;99.90;;;;;;5017432;28;20192;-81
2022/09/15 08:53:05;;;;;;;0.70;0.30;;;17.10;99.90;;;;;;5009833;28;20023;-83
2022/09/15 08:55:47;;;;;;;1.00;0.30;;;17.10;99.90;;;;;;5012001;28;20045;-82
2022/09/15 08:58:24;;;;;;;0.55;0.28;;;17.10;99.90;;;;;;5008774;28;20026;-82
2022/09/15 09:01:03;;;;;;;1.67;0.52;;;17.10;99.90;;;;;;5011230;28;20022;-83
2022/09/15 09:03:38;;;;;;;2.03;0.32;;;17.20;99.90;;;;;;5017388;28;20026;-82
2022/09/15 09:06:25;;;;;;;0.47;0.28;;;17.30;99.90;;;;;;5015756;28;20022;-82
2022/09/15 09:09:02;;;;;;;0.85;0.50;;;17.30;99.90;;;;;;5013452;28;20036;-82
2022/09/15 09:11:34;;;;;;;1.08;0.30;;;17.40;99.90;;;;;;5018008;28;20021;-83
2022/09/15 09:14:23;;;;;;;1.23;0.20;;;17.30;99.90;;;;;;5016427;28;20048;-83
2022/09/15 09:16:55;;;;;;;0.98;0.30;;;17.40;99.90;;;;;;5011608;28;20039;-81
2022/09/15 09:19:49;;;;;;;0.55;0.30;;;17.40;99.90;;;;;;5017752;28;20018;-83
2022/09/15 09:22:22;;;;;;;1.05;0.30;;;17.40;99.90;;;;;;5009602;28;20542;-81
2022/09/15 09:24:51;;;;;;;0.93;0.30;;;17.50;99.90;;;;;;5011523;28;20073;-83
2022/09/15 09:27:23;;;;;;;1.80;0.20;;;17.50;99.90;;;;;;5017275;28;20026;-84
2022/09/15 09:30:00;;;;;;;1.20;0.20;;;17.50;99.90;;;;;;5013776;28;20022;-85
2022/09/15 09:32:37;;;;;;;0.57;0.20;;;17.60;99.90;;;;;;5012888;28;20021;-85
2022/09/15 09:35:28;;;;;;;0.38;0.20;;;17.80;99.90;;;;;;5010011;28;20022;-86
2022/09/15 09:37:55;;;;;;;1.70;0.47;;;17.90;99.90;;;;;;5010940;28;20368;-85
2022/09/15 09:40:21;;;;;;;0.20;0.10;;;18.00;99.90;;;;;;5013684;28;20091;-85
2022/09/15 09:42:47;;;;;;;0.85;0.25;;;18.10;99.90;;;;;;5010053;28;20482;-86
2022/09/15 09:45:15;;;;;;;0.80;0.28;;;18.00;99.90;;;;;;5010547;28;20036;-85
2022/09/15 09:47:41;;;;;;;0.30;0.10;;;18.00;99.90;;;;;;5002307;28;20034;-85
2022/09/15 09:50:33;;;;;;;1.55;0.20;;;17.90;99.90;;;;;;5012396;28;20057;-86
2022/09/15 09:52:59;;;;;;;;;;;17.90;99.90;;;;;;5008436;28;20426;-86
2022/09/15 09:55:26;;;;;;;1.15;0.20;;;17.80;99.90;;;;;;5005288;28;20432;-85
2022/09/15 09:57:53;;;;;;;0.68;0.25;;;17.70;99.90;;;;;;5007656;28;20037;-85
2022/09/15 10:00:34;;;;;;;1.13;0.28;;;17.70;99.90;;;;;;5009117;28;20390;-85
2022/09/15 10:03:17;;;;;;;0.40;0.17;;;17.80;99.90;;;;;;5011260;28;20080;-84
2022/09/15 10:05:44;;;;;;;0.80;0.20;;;17.80;99.90;;;;;;5003533;28;20419;-85
2022/09/15 10:08:18;;;;;;;0.40;0.20;;;17.90;99.90;;;;;;5013660;28;20026;-84
2022/09/15 10:10:59;;;;;;;0.40;0.10;;;18.00;99.90;;;;;;5011950;28;20060;-84
2022/09/15 10:13:25;;;;;;;0.65;0.20;;;18.10;99.90;;;;;;5009358;28;20479;-85
2022/09/15 10:15:58;;;;;;;0.60;0.30;;;18.20;99.90;;;;;;5009898;28;20033;-84
2022/09/15 10:18:34;;;;;;;0.73;0.17;;;18.30;99.90;;;;;;5013991;28;20018;-85
2022/09/15 10:21:02;;;;;;;0.25;0.00;;;18.20;99.90;;;;;;5011993;28;20022;-85
2022/09/15 10:23:32;;;;;;;0.10;0.00;;;18.00;99.90;;;;;;5009052;28;20045;-86
2022/09/15 10:26:20;;;;;;;0.15;0.00;;;17.80;99.90;;;;;;5010878;28;20064;-84
2022/09/15 10:29:10;;;;;;;1.02;0.20;;;17.50;99.90;;;;;;5011475;28;20045;-84
2022/09/15 10:31:36;;;;;;;0.05;0.00;;;17.30;99.90;;;;;;5013917;28;20038;-83
2022/09/15 10:34:23;;;;;;;0.00;0.00;;;17.10;99.90;;;;;;5014494;28;20044;-83
2022/09/15 10:36:49;;;;;;;0.00;0.00;;;17.00;99.90;;;;;;5044555;23;20018;-84
2022/09/15 10:39:17;;;;;;;0.32;0.00;;;17.00;99.90;;;;;;5007334;28;20571;-84
2022/09/15 10:42:07;;;;;;;0.00;0.00;;;16.80;99.90;;;;;;5031022;28;20107;-85
2022/09/15 10:44:42;;;;;;;0.00;0.00;;;16.70;99.90;;;;;;5028405;28;20029;-84
2022/09/15 10:47:28;;;;;;;0.00;0.00;;;16.70;99.90;;;;;;5001244;28;20124;-85
2022/09/15 10:50:22;;;;;;;0.13;0.00;;;16.60;99.90;;;;;;5005455;28;20042;-84
2022/09/15 10:53:26;;;;;;;0.20;0.00;;;16.60;99.90;;;;;;4987625;28;20025;-85
2022/09/15 10:56:20;;;;;;;0.20;0.03;;;16.60;99.90;;;;;;4988900;28;20100;-84
2022/09/15 10:59:07;;;;;;;0.32;0.00;;;16.60;99.90;;;;;;4991424;28;20402;-85
2022/09/15 11:02:02;;;;;;;0.77;0.15;;;16.50;99.90;;;;;;4989185;28;20613;-84
2022/09/15 11:04:54;;;;;;;0.32;0.13;;;16.30;99.90;;;;;;5009878;28;20494;-85
2022/09/15 11:07:35;;;;;;;0.77;0.13;;;;;;;;;;5008847;28;20079;-84
2022/09/15 11:11:02;;;;;;;0.65;0.20;;;16.00;99.90;;;;;;4990683;28;20022;-84
2022/09/15 11:13:41;;;;;;;0.35;0.20;;;16.00;99.90;;;;;;4902320;29;20034;-84
2022/09/15 11:16:28;;;;;;;3.40;0.30;;;15.80;99.90;;;;;;4910920;29;20115;-85
2022/09/15 11:19:24;;;;;;;0.75;0.35;;;16.70;99.90;;;;;;4990617;28;20041;-84
2022/09/15 11:22:06;;;;;;;0.25;0.10;;;15.80;99.90;;;;;;5006683;28;20018;-84
2022/09/15 11:24:46;;;;;;;0.63;0.30;;;16.00;99.90;;;;;;5007818;28;20045;-84
2022/09/15 11:27:26;;;;;;;1.20;0.30;;;15.60;99.90;;;;;;5007342;28;20087;-84
2022/09/15 11:30:01;;;;;;;1.98;0.40;;;15.70;99.90;;;;;;5001490;28;20037;-86
2022/09/15 11:32:49;;;;;;;1.48;0.50;;;15.80;99.90;;;;;;5011523;28;20022;-85
2022/09/15 11:35:54;;;;;;;1.05;0.47;;;15.70;99.90;;;;;;4987267;28;20080;-85
2022/09/15 11:39:02;;;;;;;0.85;0.35;;;15.60;99.90;;;;;;5005632;28;20092;-84
2022/09/15 11:41:35;;;;;;;1.70;0.50;;;15.50;99.90;;;;;;4977538;28;20030;-85
2022/09/15 11:44:00;;;;;;;2.35;0.70;;;16.40;99.90;;;;;;4988980;28;20120;-86
2022/09/15 11:47:09;;;;;;;1.17;0.40;;;15.40;99.90;;;;;;4992831;28;20118;-85
2022/09/15 11:49:52;;;;;;;2.00;0.60;;;15.30;99.90;;;;;;4979729;28;20407;-85
2022/09/15 11:52:39;;;;;;;2.05;0.68;;;15.30;99.90;;;;;;4997055;28;20124;-85
2022/09/15 11:55:18;;;;;;;2.15;0.70;;;15.50;99.90;;;;;;5011302;28;20032;-85
2022/09/15 11:57:54;;;;;;;1.85;0.57;;;15.60;99.90;;;;;;5018418;28;20022;-85
2022/09/15 12:00:20;;;;;;;1.73;0.80;;;15.70;99.90;;;;;;5011767;28;20025;-85
2022/09/15 12:02:53;;;;;;;1.90;0.80;;;15.80;99.90;;;;;;5011547;28;20026;-85
2022/09/15 12:05:40;;;;;;;2.45;0.70;;;15.70;99.90;;;;;;5010485;28;20032;-86
2022/09/15 12:08:25;;;;;;;2.63;1.02;;;15.60;99.90;;;;;;5011779;28;20022;-85
2022/09/15 12:10:55;;;;;;;1.60;0.60;;;15.60;99.90;;;;;;4995768;28;20406;-85
2022/09/15 12:13:23;;;;;;;1.58;0.70;;;15.60;99.90;;;;;;4996140;28;20437;-85
2022/09/15 12:15:51;;;;;;;1.92;0.80;;;15.60;99.90;;;;;;5013250;28;20398;-85
2022/09/15 12:18:34;;;;;;;2.15;0.55;;;15.70;99.90;;;;;;5012667;28;20080;-85
2022/09/15 12:21:18;;;;;;;2.13;0.63;;;15.60;99.90;;;;;;5013102;28;20081;-85
2022/09/15 12:24:04;;;;;;;1.63;0.55;;;15.60;99.90;;;;;;5009213;28;20053;-85
2022/09/15 12:26:32;;;;;;;2.53;0.43;;;15.60;99.90;;;;;;4984118;28;20113;-85
2022/09/15 12:29:39;;;;;;;3.03;1.13;;;15.70;99.90;;;;;;5011384;28;20026;-85
2022/09/15 12:32:21;;;;;;;1.20;0.45;;;15.60;99.90;;;;;;4985560;28;20026;-86
2022/09/15 12:34:59;;;;;;;4.22;1.10;;;15.50;99.90;;;;;;5001060;28;20057;-85
2022/09/15 12:37:36;;;;;;;1.95;0.68;;;15.50;99.90;;;;;;4994315;28;20029;-85
2022/09/15 12:40:05;;;;;;;2.65;0.80;;;15.60;99.90;;;;;;5010722;28;20033;-85
2022/09/15 12:42:33;;;;;;;2.13;0.70;;;15.80;99.90;;;;;;4991801;28;20035;-85
2022/09/15 12:45:05;;;;;;;1.98;0.57;;;15.90;99.90;;;;;;5011001;28;20049;-85
2022/09/15 12:47:53;;;;;;;1.90;0.70;;;16.30;99.90;;;;;;5007135;28;20037;-86
2022/09/15 12:50:21;;;;;;;1.92;0.68;;;16.40;99.90;;;;;;4999250;28;20034;-85
2022/09/15 12:53:00;;;;;;;2.85;0.93;;;16.50;99.90;;;;;;4982776;28;20057;-86
2022/09/15 12:55:36;;;;;;;1.35;0.70;;;16.60;99.90;;;;;;5003301;28;20022;-86
2022/09/15 12:58:14;;;;;;;1.98;0.80;;;16.80;99.90;;;;;;4990614;28;20022;-86
2022/09/15 13:00:42;;;;;;;1.65;0.80;;;16.80;99.90;;;;;;4992521;28;20026;-85
2022/09/15 13:03:39;;;;;;;1.98;0.50;;;16.80;99.90;;;;;;5008745;28;20018;-86
2022/09/15 13:06:20;;;;;;;2.25;1.00;;;16.80;99.90;;;;;;4989637;28;20036;-85
2022/09/15 13:08:46;;;;;;;2.45;1.10;;;16.80;99.90;;;;;;4989346;28;20026;-85
2022/09/15 13:11:35;;;;;;;2.45;0.77;;;16.90;99.90;;;;;;5007907;28;20022;-86
2022/09/15 13:14:07;;;;;;;2.47;0.93;;;16.90;99.90;;;;;;4992741;28;20409;-85
2022/09/15 13:16:58;;;;;;;2.40;0.90;;;16.80;99.90;;;;;;5011022;28;20083;-85
2022/09/15 13:19:39;;;;;;;1.35;0.70;;;16.90;99.90;;;;;;5008490;28;20065;-85